createdAt,value
2022-12-24T00:02:14.236Z,100306.66
2022-12-24T00:05:17.452Z,100307.53
2022-12-24T00:08:20.449Z,100313.75
2022-12-24T00:11:23.370Z,100311.97
2022-12-24T00:14:26.556Z,100314.63
2022-12-24T00:17:30.851Z,100317.28
2022-12-24T00:20:33.727Z,100322.59
2022-12-24T00:23:36.692Z,100319.94
2022-12-24T00:26:39.514Z,100306.66
2022-12-24T00:29:42.451Z,100305.78
2022-12-24T00:32:46.620Z,100316.41
2022-12-24T00:35:52.501Z,100316.41
2022-12-24T00:38:55.295Z,100305.78
2022-12-24T00:41:58.458Z,100304.91
2022-12-24T00:45:01.314Z,100318.19
2022-12-24T00:48:05.695Z,100317.34
2022-12-24T00:51:08.545Z,100327.13
2022-12-24T00:54:11.586Z,100322.66
2022-12-24T00:57:14.384Z,100318.28
2022-12-24T01:00:18.116Z,100327.03
2022-12-24T01:03:22.496Z,100334.13
2022-12-24T01:06:24.374Z,100341.19
2022-12-24T01:09:27.222Z,100340.31
2022-12-24T01:12:30.160Z,100342.09
2022-12-24T01:15:33.040Z,100342.97
2022-12-24T01:18:37.304Z,100356.25
2022-12-24T01:21:40.124Z,100358.91
2022-12-24T01:24:43.675Z,100354.44
2022-12-24T01:27:46.570Z,100358.91
2022-12-24T01:30:49.979Z,100358.91
2022-12-24T01:33:54.222Z,100366.00
2022-12-24T01:36:57.084Z,100359.75
2022-12-24T01:40:13.815Z,100354.44
2022-12-24T01:43:25.008Z,100359.75
2022-12-24T01:46:32.847Z,100370.38
2022-12-24T01:49:38.932Z,100381.00
2022-12-24T01:52:42.171Z,100376.56
2022-12-24T01:55:47.164Z,100370.38
2022-12-24T01:58:56.172Z,100372.09
2022-12-24T02:01:59.289Z,100378.34
2022-12-24T02:05:09.097Z,100381.00
2022-12-24T02:08:12.027Z,100386.31
2022-12-24T02:11:17.223Z,100386.31
2022-12-24T02:14:20.275Z,100396.94
2022-12-24T02:17:28.946Z,100394.28
2022-12-24T02:21:11.050Z,100403.13
2022-12-24T02:24:54.240Z,100405.78
2022-12-24T02:28:00.907Z,100410.22
2022-12-24T02:31:07.182Z,100417.31
2022-12-24T02:34:16.372Z,100417.31
2022-12-24T02:37:22.727Z,100417.31
2022-12-24T02:40:30.493Z,100420.84
2022-12-24T02:43:36.915Z,100423.50
2022-12-24T02:46:41.200Z,100435.91
2022-12-24T02:49:45.891Z,100432.38
2022-12-24T02:52:49.691Z,100434.13
2022-12-24T02:56:02.847Z,100437.66
2022-12-24T02:59:26.101Z,100440.31
2022-12-24T03:02:46.752Z,100440.31
2022-12-24T03:05:53.192Z,100446.47
2022-12-24T03:09:02.218Z,100448.28
2022-12-24T03:12:11.827Z,100446.47
2022-12-24T03:15:19.063Z,100451.75
2022-12-24T03:18:25.626Z,100454.50
2022-12-24T03:21:33.523Z,100463.25
2022-12-24T03:24:36.524Z,100468.66
2022-12-24T03:27:40.503Z,100475.66
2022-12-24T03:30:44.630Z,100471.31
2022-12-24T03:33:49.185Z,100486.28
2022-12-24T03:36:52.119Z,100480.97
2022-12-24T03:39:55.170Z,100471.31
2022-12-24T03:42:58.015Z,100479.19
2022-12-24T03:46:05.585Z,100480.06
2022-12-24T03:49:09.795Z,100481.84
2022-12-24T03:52:12.683Z,100492.38
2022-12-24T03:55:15.572Z,100489.72
2022-12-24T03:58:18.382Z,100486.25
2022-12-24T04:01:21.328Z,100480.94
2022-12-24T04:04:25.825Z,100494.13
2022-12-24T04:07:28.766Z,100503.88
2022-12-24T04:10:31.598Z,100510.06
2022-12-24T04:13:34.654Z,100508.28
2022-12-24T04:16:37.760Z,100514.44
2022-12-24T04:19:42.023Z,100518.81
2022-12-24T04:22:44.890Z,100515.38
2022-12-24T04:25:48.022Z,100512.72
2022-12-24T04:28:50.899Z,100514.44
2022-12-24T04:31:53.751Z,100509.19
2022-12-24T04:34:58.057Z,100510.94
2022-12-24T04:38:01.111Z,100508.31
2022-12-24T04:41:05.927Z,100510.97
2022-12-24T04:44:10.888Z,100518.94
2022-12-24T04:47:13.940Z,100518.94
2022-12-24T04:50:18.267Z,100518.13
2022-12-24T04:53:21.156Z,100528.75
2022-12-24T04:56:25.901Z,100524.25
2022-12-24T04:59:29.407Z,100530.53
2022-12-24T05:02:32.496Z,100529.66
2022-12-24T05:05:36.843Z,100526.13
2022-12-24T05:08:39.930Z,100535.03
2022-12-24T05:11:42.744Z,100539.50
2022-12-24T05:14:45.639Z,100552.69
2022-12-24T05:17:48.538Z,100559.88
2022-12-24T05:20:52.861Z,100559.88
2022-12-24T05:24:13.086Z,100565.19
2022-12-24T05:27:15.971Z,100566.91
2022-12-24T05:30:19.008Z,100565.19
2022-12-24T05:33:21.875Z,100570.50
2022-12-24T05:36:26.075Z,100575.75
2022-12-24T05:39:28.879Z,100575.81
2022-12-24T05:42:31.703Z,100576.66
2022-12-24T05:45:34.662Z,100579.31
2022-12-24T05:48:37.500Z,100575.81
2022-12-24T05:51:42.619Z,100582.84
2022-12-24T05:54:45.502Z,100581.97
2022-12-24T05:57:48.329Z,100589.09
2022-12-24T06:00:54.453Z,100591.75
2022-12-24T06:03:58.259Z,100594.34
2022-12-24T06:07:02.592Z,100590.81
2022-12-24T06:10:06.363Z,100604.09
2022-12-24T06:13:09.243Z,100611.13
2022-12-24T06:16:14.853Z,100608.47
2022-12-24T06:19:17.735Z,100604.97
2022-12-24T06:22:22.121Z,100606.69
2022-12-24T06:25:24.955Z,100616.44
2022-12-24T06:28:28.206Z,100625.34
2022-12-24T06:31:31.068Z,100624.47
2022-12-24T06:34:33.961Z,100635.09
2022-12-24T06:37:38.179Z,100634.22
2022-12-24T06:40:41.623Z,100639.53
2022-12-24T06:43:46.380Z,100647.50
2022-12-24T06:46:49.311Z,100658.13
2022-12-24T06:49:52.202Z,100662.53
2022-12-24T06:52:56.707Z,100666.97
2022-12-24T06:56:03.032Z,100667.84
2022-12-24T06:59:05.879Z,100671.41
2022-12-24T07:02:10.220Z,100672.28
2022-12-24T07:05:14.369Z,100675.03
2022-12-24T07:08:18.566Z,100681.19
2022-12-24T07:11:22.277Z,100685.63
2022-12-24T07:14:25.272Z,100683.91
2022-12-24T07:17:28.314Z,100694.47
2022-12-24T07:20:31.179Z,100696.25
2022-12-24T07:23:35.830Z,100704.16
2022-12-24T07:26:38.672Z,100702.44
2022-12-24T07:29:41.569Z,100713.91
2022-12-24T07:32:44.565Z,100718.38
2022-12-24T07:35:52.199Z,100725.41
2022-12-24T07:38:59.874Z,100733.38
2022-12-24T07:42:02.750Z,100731.59
2022-12-24T07:45:06.480Z,100735.16
2022-12-24T07:48:09.266Z,100737.81
2022-12-24T07:51:12.133Z,100745.78
2022-12-24T07:54:16.329Z,100746.66
2022-12-24T07:57:19.383Z,100757.28
2022-12-24T08:00:22.636Z,100763.47
2022-12-24T08:03:26.011Z,100765.16
2022-12-24T08:06:28.939Z,100756.28
2022-12-24T08:09:34.106Z,100756.38
2022-12-24T08:12:36.980Z,100759.84
2022-12-24T08:15:39.891Z,100761.69
2022-12-24T08:18:42.778Z,100768.78
2022-12-24T08:21:45.653Z,100771.44
2022-12-24T08:24:49.839Z,100774.97
2022-12-24T08:27:53.094Z,100779.41
2022-12-24T08:30:56.236Z,100784.72
2022-12-24T08:33:59.084Z,100782.06
2022-12-24T08:37:01.910Z,100779.41
2022-12-24T08:40:07.618Z,100784.63
2022-12-24T08:43:10.480Z,100791.72
2022-12-24T08:46:13.435Z,100793.47
2022-12-24T08:49:16.344Z,100797.91
2022-12-24T08:52:19.186Z,100795.25
2022-12-24T08:55:23.335Z,100802.34
2022-12-24T08:58:26.245Z,100802.34
2022-12-24T09:01:29.187Z,100798.00
2022-12-24T09:04:32.152Z,100811.28
2022-12-24T09:07:35.016Z,100817.44
2022-12-24T09:10:39.343Z,100819.25
2022-12-24T09:13:42.579Z,100816.59
2022-12-24T09:16:45.432Z,100823.59
2022-12-24T09:19:48.386Z,100831.56
2022-12-24T09:22:51.267Z,100827.19
2022-12-24T09:25:55.762Z,100833.38
2022-12-24T09:29:00.721Z,100827.19
2022-12-24T09:32:03.844Z,100829.84
2022-12-24T09:35:07.203Z,100836.03
2022-12-24T09:38:10.317Z,100846.72
2022-12-24T09:41:16.349Z,100845.88
2022-12-24T09:44:39.500Z,100854.69
2022-12-24T09:47:47.959Z,100860.00
2022-12-24T09:50:55.928Z,100864.38
2022-12-24T09:54:04.406Z,100864.38
2022-12-24T09:57:16.811Z,100869.69
2022-12-24T10:00:23.526Z,100876.72
2022-12-24T10:03:26.580Z,100874.06
2022-12-24T10:06:37.031Z,100875.81
2022-12-24T10:09:49.067Z,100874.06
2022-12-24T10:13:05.828Z,100873.22
2022-12-24T10:16:14.573Z,100872.28
2022-12-24T10:19:22.303Z,100876.72
2022-12-24T10:22:33.779Z,100885.56
2022-12-24T10:25:44.872Z,100887.34
2022-12-24T10:28:53.227Z,100893.53
2022-12-24T10:32:02.011Z,100889.97
2022-12-24T10:35:18.535Z,100892.63
2022-12-24T10:38:21.382Z,100897.94
2022-12-24T10:41:26.346Z,100901.44
2022-12-24T10:44:33.862Z,100917.38
2022-12-24T10:47:40.349Z,100928.00
2022-12-24T10:50:53.065Z,100933.31
2022-12-24T10:54:02.040Z,100938.63
2022-12-24T10:57:05.032Z,100936.91
2022-12-24T11:00:20.623Z,100946.66
2022-12-24T11:03:29.666Z,100948.44
2022-12-24T11:06:32.541Z,100939.63
2022-12-24T11:09:41.148Z,100946.66
2022-12-24T11:13:12.864Z,100943.13
2022-12-24T11:16:22.067Z,100937.78
2022-12-24T11:19:34.736Z,100943.13
2022-12-24T11:22:37.659Z,100951.09
2022-12-24T11:25:42.709Z,100951.97
2022-12-24T11:28:45.568Z,100948.44
2022-12-24T11:31:52.619Z,100956.41
2022-12-24T11:34:55.503Z,100954.69
2022-12-24T11:38:12.372Z,100968.84
2022-12-24T11:41:15.501Z,100971.50
2022-12-24T11:44:26.070Z,100967.03
2022-12-24T11:47:39.326Z,100965.25
2022-12-24T11:50:42.284Z,100968.78
2022-12-24T11:53:49.909Z,100972.31
2022-12-24T11:56:54.846Z,100961.69
2022-12-24T11:59:57.878Z,100960.81
2022-12-24T12:03:04.083Z,100956.38
2022-12-24T12:06:20.240Z,100965.19
2022-12-24T12:09:28.020Z,100979.41
2022-12-24T12:12:34.035Z,100980.28
2022-12-24T12:15:41.940Z,100984.72
2022-12-24T12:18:52.933Z,100975.88
2022-12-24T12:21:55.868Z,100982.06
2022-12-24T12:25:01.801Z,100996.22
2022-12-24T12:28:10.106Z,100999.72
2022-12-24T12:31:19.369Z,100999.72
2022-12-24T12:34:30.710Z,100990.91
2022-12-24T12:37:39.359Z,101002.38
2022-12-24T12:40:59.064Z,101005.97
2022-12-24T12:44:25.868Z,101013.00
2022-12-24T12:47:46.941Z,101005.97
2022-12-24T12:50:58.193Z,101016.59
2022-12-24T12:54:22.515Z,101026.34
2022-12-24T12:57:29.803Z,101021.03
2022-12-24T13:00:36.741Z,101021.97
2022-12-24T13:04:18.358Z,101032.53
2022-12-24T13:08:00.351Z,101035.19
2022-12-24T13:11:33.743Z,101020.13
2022-12-24T13:14:51.558Z,101022.78
2022-12-24T13:18:21.736Z,101029.88
2022-12-24T13:21:27.556Z,101026.34
2022-12-24T13:24:33.296Z,101026.34
2022-12-24T13:27:36.676Z,101026.34
2022-12-24T13:30:41.560Z,101025.47
2022-12-24T13:33:49.365Z,101022.81
2022-12-24T13:37:21.614Z,101027.28
2022-12-24T13:40:26.674Z,101037.03
2022-12-24T13:44:05.747Z,101036.09
2022-12-24T13:47:26.820Z,101041.41
2022-12-24T13:50:38.059Z,101044.06
2022-12-24T13:53:45.580Z,101045.81
2022-12-24T13:56:50.455Z,101057.34
2022-12-24T13:59:59.611Z,101065.31
2022-12-24T14:03:08.109Z,101071.50
2022-12-24T14:06:14.363Z,101080.41
2022-12-24T14:09:20.645Z,101073.28
2022-12-24T14:16:05.611Z,101082.13
2022-12-24T14:19:15.513Z,101089.22
2022-12-24T14:22:28.189Z,101097.16
2022-12-24T14:25:31.086Z,101094.50
2022-12-24T14:28:40.409Z,101098.00
2022-12-24T14:31:53.537Z,101103.31
2022-12-24T14:35:10.717Z,101108.63
2022-12-24T14:38:18.599Z,101110.44
2022-12-24T14:41:32.688Z,101115.75
2022-12-24T14:44:46.425Z,101113.09
2022-12-24T14:47:58.293Z,101109.56
2022-12-24T14:51:13.103Z,101109.56
2022-12-24T14:54:33.519Z,101119.25
2022-12-24T14:57:36.339Z,101118.41
2022-12-24T15:00:39.705Z,101125.50
2022-12-24T15:03:44.091Z,101123.66
2022-12-24T15:06:50.349Z,101123.66
2022-12-24T15:09:54.376Z,101133.41
2022-12-24T15:12:59.210Z,101137.84
2022-12-24T15:16:04.173Z,101151.13
2022-12-24T15:19:16.974Z,101149.41
2022-12-24T15:22:24.829Z,101158.25
2022-12-24T15:25:30.284Z,101154.72
2022-12-24T15:28:37.786Z,101154.72
2022-12-24T15:31:40.719Z,101154.72
2022-12-24T15:34:46.594Z,101156.50
2022-12-24T15:37:49.573Z,101153.78
2022-12-24T15:40:52.596Z,101160.91
2022-12-24T15:44:02.789Z,101164.41
2022-12-24T15:47:09.800Z,101168.88
2022-12-24T15:50:19.826Z,101169.72
2022-12-24T15:53:27.116Z,101171.53
2022-12-24T15:56:33.987Z,101171.56
2022-12-24T15:59:37.265Z,101177.75
2022-12-24T16:02:42.543Z,101177.75
2022-12-24T16:05:47.246Z,101176.88
2022-12-24T16:08:51.076Z,101185.72
2022-12-24T16:11:56.741Z,101190.16
2022-12-24T16:15:04.096Z,101183.06
2022-12-24T16:18:07.157Z,101191.91
2022-12-24T16:21:19.728Z,101191.91
2022-12-24T16:24:24.971Z,101187.47
2022-12-24T16:27:27.881Z,101201.59
2022-12-24T16:30:30.787Z,101198.09
2022-12-24T16:33:33.605Z,101209.63
2022-12-24T16:36:37.836Z,101216.69
2022-12-24T16:39:40.720Z,101226.47
2022-12-24T16:43:01.252Z,101229.09
2022-12-24T16:46:07.979Z,101222.03
2022-12-24T16:49:16.856Z,101218.47
2022-12-24T16:52:22.692Z,101222.03
2022-12-24T16:55:25.511Z,101234.41
2022-12-24T16:58:29.482Z,101237.94
2022-12-24T17:01:32.457Z,101230.00
2022-12-24T17:04:35.973Z,101230.81
2022-12-24T17:07:43.578Z,101230.81
2022-12-24T17:10:51.956Z,101238.78
2022-12-24T17:13:54.843Z,101243.25
2022-12-24T17:16:57.639Z,101250.38
2022-12-24T17:20:00.469Z,101255.69
2022-12-24T17:23:04.616Z,101257.47
2022-12-24T17:26:13.046Z,101261.00
2022-12-24T17:29:17.387Z,101254.81
2022-12-24T17:32:20.282Z,101266.25
2022-12-24T17:35:23.165Z,101268.03
2022-12-24T17:38:27.399Z,101268.91
2022-12-24T17:41:30.219Z,101263.59
2022-12-24T17:44:33.115Z,101273.34
2022-12-24T17:47:35.975Z,101263.59
2022-12-24T17:50:40.632Z,101268.03
2022-12-24T17:53:44.978Z,101273.34
2022-12-24T17:56:47.813Z,101276.00
2022-12-24T17:59:50.618Z,101282.25
2022-12-24T18:02:53.651Z,101287.56
2022-12-24T18:05:56.875Z,101294.59
2022-12-24T18:09:01.079Z,101299.09
2022-12-24T18:12:03.995Z,101303.50
2022-12-24T18:15:08.060Z,101307.88
2022-12-24T18:18:10.978Z,101305.22
2022-12-24T18:21:14.089Z,101310.53
2022-12-24T18:24:18.336Z,101310.53
2022-12-24T18:27:21.159Z,101299.91
2022-12-24T18:30:27.710Z,101304.38
2022-12-24T18:33:32.022Z,101307.88
2022-12-24T18:36:35.494Z,101299.06
2022-12-24T18:39:39.815Z,101308.81
2022-12-24T18:42:42.737Z,101311.47
2022-12-24T18:45:46.944Z,101325.66
2022-12-24T18:48:50.262Z,101330.06
2022-12-24T18:51:53.103Z,101330.94
2022-12-24T18:54:57.253Z,101328.22
2022-12-24T18:58:00.136Z,101328.22
2022-12-24T19:01:03.046Z,101332.66
2022-12-24T19:04:06.171Z,101351.25
2022-12-24T19:07:09.029Z,101347.72
2022-12-24T19:10:13.586Z,101356.56
2022-12-24T19:13:16.402Z,101370.72
2022-12-24T19:16:19.744Z,101366.31
2022-12-24T19:19:24.149Z,101376.09
2022-12-24T19:22:27.645Z,101379.59
2022-12-24T19:25:32.064Z,101374.28
2022-12-24T19:28:35.000Z,101376.94
2022-12-24T19:31:37.846Z,101381.34
2022-12-24T19:34:40.684Z,101386.66
2022-12-24T19:37:43.524Z,101383.06
2022-12-24T19:40:47.677Z,101391.97
2022-12-24T19:43:52.907Z,101397.28
2022-12-24T19:46:55.790Z,101408.78
2022-12-24T19:49:58.968Z,101411.47
2022-12-24T19:53:01.939Z,101413.22
2022-12-24T19:56:07.296Z,101410.56
2022-12-24T19:59:11.327Z,101411.47
2022-12-24T20:02:14.364Z,101414.13
2022-12-24T20:05:17.395Z,101413.28
2022-12-24T20:08:20.251Z,101411.47
2022-12-24T20:11:24.505Z,101409.69
2022-12-24T20:14:28.133Z,101406.16
2022-12-24T20:17:31.038Z,101396.41
2022-12-24T20:20:33.905Z,101390.22
2022-12-24T20:23:38.654Z,101387.56
2022-12-24T20:26:42.922Z,101387.56
2022-12-24T20:29:45.985Z,101392.94
2022-12-24T20:32:55.065Z,101396.47
2022-12-24T20:36:02.341Z,101406.16
2022-12-24T20:39:06.577Z,101404.44
2022-12-24T20:42:10.799Z,101409.75
2022-12-24T20:45:13.643Z,101406.16
2022-12-24T20:48:17.229Z,101412.41
2022-12-24T20:51:24.729Z,101422.09
2022-12-24T20:54:27.998Z,101413.22
2022-12-24T20:57:36.305Z,101409.69
2022-12-24T21:00:39.883Z,101404.44
2022-12-24T21:03:42.767Z,101407.97
2022-12-24T21:06:46.058Z,101405.31
2022-12-24T21:09:48.993Z,101416.84
2022-12-24T21:12:57.074Z,101418.63
2022-12-24T21:16:00.001Z,101423.94
2022-12-24T21:19:03.349Z,101423.03
2022-12-24T21:22:06.174Z,101427.41
2022-12-24T21:25:10.180Z,101423.84
2022-12-24T21:28:17.625Z,101436.25
2022-12-24T21:31:20.559Z,101445.09
2022-12-24T21:34:23.495Z,101446.88
2022-12-24T21:37:26.370Z,101454.84
2022-12-24T21:40:29.214Z,101454.84
2022-12-24T21:43:35.254Z,101450.44
2022-12-24T21:46:38.179Z,101463.72
2022-12-24T21:49:58.410Z,101453.97
2022-12-24T21:53:15.163Z,101457.50
2022-12-24T21:56:18.067Z,101456.63
2022-12-24T21:59:26.543Z,101459.28
2022-12-24T22:02:30.456Z,101473.41
2022-12-24T22:05:35.121Z,101480.53
2022-12-24T22:08:55.636Z,101481.38
2022-12-24T22:11:58.528Z,101472.56
2022-12-24T22:15:05.257Z,101477.88
2022-12-24T22:18:08.150Z,101477.00
2022-12-24T22:21:11.063Z,101484.09
2022-12-24T22:24:13.959Z,101480.56
2022-12-24T22:27:16.800Z,101493.00
2022-12-24T22:30:21.056Z,101493.88
2022-12-24T22:33:23.999Z,101498.31
2022-12-24T22:36:26.976Z,101495.66
2022-12-24T22:39:30.175Z,101498.31
2022-12-24T22:42:33.818Z,101505.34
2022-12-24T22:45:40.198Z,101508.00
2022-12-24T22:48:44.262Z,101515.06
2022-12-24T22:51:47.098Z,101515.06
2022-12-24T22:54:49.996Z,101514.19
2022-12-24T22:57:52.847Z,101518.63
2022-12-24T23:00:57.691Z,101531.00
2022-12-24T23:04:00.654Z,101532.78
2022-12-24T23:07:03.687Z,101539.00
2022-12-24T23:10:07.861Z,101544.31
2022-12-24T23:13:30.872Z,101549.63
2022-12-24T23:16:35.389Z,101562.88
2022-12-24T23:19:38.547Z,101557.56
2022-12-24T23:22:41.378Z,101562.84
2022-12-24T23:25:44.434Z,101561.06
2022-12-24T23:28:48.266Z,101561.94
2022-12-24T23:31:52.509Z,101560.19
2022-12-24T23:34:55.364Z,101563.72
2022-12-24T23:37:58.215Z,101557.56
2022-12-24T23:41:02.967Z,101556.69
2022-12-24T23:44:06.164Z,101554.03
2022-12-24T23:47:10.379Z,101554.03
2022-12-24T23:50:13.216Z,101559.34
2022-12-24T23:53:17.751Z,101557.56
2022-12-24T23:56:21.252Z,101551.38
2022-12-24T23:59:24.071Z,101557.56
